sensor_id;sensor_type;location;lat;lon;timestamp;P1;durP1;ratioP1;P2;durP2;ratioP2
23155;SDS011;11746;50.876;4.246;2022-12-29T00:00:17;1.70;;;0.98;;
23155;SDS011;11746;50.876;4.246;2022-12-29T00:02:45;2.60;;;1.10;;
23155;SDS011;11746;50.876;4.246;2022-12-29T00:05:12;1.15;;;0.80;;
23155;SDS011;11746;50.876;4.246;2022-12-29T00:07:39;4.22;;;0.90;;
23155;SDS011;11746;50.876;4.246;2022-12-29T00:10:04;6.82;;;2.22;;
23155;SDS011;11746;50.876;4.246;2022-12-29T00:12:31;2.42;;;1.35;;
23155;SDS011;11746;50.876;4.246;2022-12-29T00:15:19;3.28;;;1.20;;
23155;SDS011;11746;50.876;4.246;2022-12-29T00:18:05;2.20;;;0.60;;
23155;SDS011;11746;50.876;4.246;2022-12-29T00:20:37;2.25;;;0.55;;
23155;SDS011;11746;50.876;4.246;2022-12-29T00:23:21;2.65;;;0.85;;
23155;SDS011;11746;50.876;4.246;2022-12-29T00:26:11;2.60;;;0.68;;
23155;SDS011;11746;50.876;4.246;2022-12-29T00:28:57;4.68;;;0.68;;
23155;SDS011;11746;50.876;4.246;2022-12-29T00:31:44;1.73;;;0.50;;
23155;SDS011;11746;50.876;4.246;2022-12-29T00:34:28;1.73;;;0.73;;
23155;SDS011;11746;50.876;4.246;2022-12-29T00:37:12;1.20;;;0.50;;
23155;SDS011;11746;50.876;4.246;2022-12-29T00:39:38;2.00;;;0.70;;
23155;SDS011;11746;50.876;4.246;2022-12-29T00:42:25;3.88;;;0.77;;
23155;SDS011;11746;50.876;4.246;2022-12-29T00:45:09;1.70;;;0.60;;
23155;SDS011;11746;50.876;4.246;2022-12-29T00:47:37;2.40;;;0.70;;
23155;SDS011;11746;50.876;4.246;2022-12-29T00:50:02;2.90;;;0.85;;
23155;SDS011;11746;50.876;4.246;2022-12-29T00:52:28;1.73;;;0.60;;
23155;SDS011;11746;50.876;4.246;2022-12-29T00:54:54;3.72;;;0.70;;
23155;SDS011;11746;50.876;4.246;2022-12-29T00:57:20;2.55;;;0.73;;
23155;SDS011;11746;50.876;4.246;2022-12-29T00:59:48;1.58;;;0.45;;
23155;SDS011;11746;50.876;4.246;2022-12-29T01:02:15;3.80;;;0.90;;
23155;SDS011;11746;50.876;4.246;2022-12-29T01:04:41;4.35;;;0.63;;
23155;SDS011;11746;50.876;4.246;2022-12-29T01:07:07;3.65;;;0.90;;
23155;SDS011;11746;50.876;4.246;2022-12-29T01:09:35;2.47;;;0.90;;
23155;SDS011;11746;50.876;4.246;2022-12-29T01:12:19;3.35;;;0.73;;
23155;SDS011;11746;50.876;4.246;2022-12-29T01:15:05;4.50;;;1.00;;
23155;SDS011;11746;50.876;4.246;2022-12-29T01:17:34;3.88;;;0.60;;
23155;SDS011;11746;50.876;4.246;2022-12-29T01:20:03;2.22;;;0.50;;
23155;SDS011;11746;50.876;4.246;2022-12-29T01:22:29;3.35;;;0.70;;
23155;SDS011;11746;50.876;4.246;2022-12-29T01:24:58;3.28;;;0.80;;
23155;SDS011;11746;50.876;4.246;2022-12-29T01:27:26;4.00;;;0.80;;
23155;SDS011;11746;50.876;4.246;2022-12-29T01:29:56;2.40;;;1.02;;
23155;SDS011;11746;50.876;4.246;2022-12-29T01:32:22;2.33;;;0.68;;
23155;SDS011;11746;50.876;4.246;2022-12-29T01:34:50;2.70;;;0.90;;
23155;SDS011;11746;50.876;4.246;2022-12-29T01:37:18;3.95;;;1.27;;
23155;SDS011;11746;50.876;4.246;2022-12-29T01:39:44;4.72;;;1.77;;
23155;SDS011;11746;50.876;4.246;2022-12-29T01:42:14;3.55;;;1.00;;
23155;SDS011;11746;50.876;4.246;2022-12-29T01:50:33;4.82;;;1.70;;
23155;SDS011;11746;50.876;4.246;2022-12-29T01:53:11;5.22;;;0.88;;
23155;SDS011;11746;50.876;4.246;2022-12-29T01:55:46;4.00;;;0.70;;
23155;SDS011;11746;50.876;4.246;2022-12-29T01:58:15;3.85;;;1.02;;
23155;SDS011;11746;50.876;4.246;2022-12-29T02:00:45;2.65;;;0.60;;
23155;SDS011;11746;50.876;4.246;2022-12-29T02:03:10;2.35;;;0.70;;
23155;SDS011;11746;50.876;4.246;2022-12-29T02:05:42;3.35;;;0.60;;
23155;SDS011;11746;50.876;4.246;2022-12-29T02:08:16;2.58;;;0.43;;
23155;SDS011;11746;50.876;4.246;2022-12-29T02:10:42;2.88;;;0.57;;
23155;SDS011;11746;50.876;4.246;2022-12-29T02:13:09;2.35;;;0.50;;
23155;SDS011;11746;50.876;4.246;2022-12-29T02:46:00;1.83;;;0.55;;
23155;SDS011;11746;50.876;4.246;2022-12-29T02:48:37;1.45;;;0.47;;
23155;SDS011;11746;50.876;4.246;2022-12-29T02:51:15;3.15;;;0.40;;
23155;SDS011;11746;50.876;4.246;2022-12-29T02:53:45;1.80;;;0.40;;
23155;SDS011;11746;50.876;4.246;2022-12-29T02:56:30;1.65;;;0.45;;
23155;SDS011;11746;50.876;4.246;2022-12-29T02:58:56;1.88;;;0.30;;
23155;SDS011;11746;50.876;4.246;2022-12-29T03:01:29;3.17;;;0.52;;
23155;SDS011;11746;50.876;4.246;2022-12-29T03:04:03;4.57;;;0.70;;
23155;SDS011;11746;50.876;4.246;2022-12-29T03:09:21;5.20;;;0.80;;
23155;SDS011;11746;50.876;4.246;2022-12-29T03:15:30;4.10;;;1.00;;
23155;SDS011;11746;50.876;4.246;2022-12-29T03:18:24;5.97;;;1.27;;
23155;SDS011;11746;50.876;4.246;2022-12-29T03:21:30;4.68;;;0.60;;
23155;SDS011;11746;50.876;4.246;2022-12-29T03:24:26;6.25;;;1.42;;
23155;SDS011;11746;50.876;4.246;2022-12-29T03:26:56;5.18;;;0.80;;
23155;SDS011;11746;50.876;4.246;2022-12-29T03:29:25;5.57;;;0.80;;
23155;SDS011;11746;50.876;4.246;2022-12-29T03:31:54;2.75;;;0.77;;
23155;SDS011;11746;50.876;4.246;2022-12-29T03:34:21;3.97;;;0.50;;
23155;SDS011;11746;50.876;4.246;2022-12-29T03:36:53;4.82;;;0.57;;
23155;SDS011;11746;50.876;4.246;2022-12-29T03:39:24;1.17;;;0.30;;
23155;SDS011;11746;50.876;4.246;2022-12-29T03:41:54;2.60;;;0.60;;
23155;SDS011;11746;50.876;4.246;2022-12-29T03:44:38;1.13;;;0.50;;
23155;SDS011;11746;50.876;4.246;2022-12-29T03:47:06;2.53;;;0.50;;
23155;SDS011;11746;50.876;4.246;2022-12-29T03:49:32;2.70;;;0.40;;
23155;SDS011;11746;50.876;4.246;2022-12-29T03:51:58;1.98;;;0.65;;
23155;SDS011;11746;50.876;4.246;2022-12-29T03:54:24;2.97;;;0.75;;
23155;SDS011;11746;50.876;4.246;2022-12-29T03:56:50;2.20;;;0.60;;
23155;SDS011;11746;50.876;4.246;2022-12-29T03:59:16;3.45;;;0.60;;
23155;SDS011;11746;50.876;4.246;2022-12-29T04:01:42;3.30;;;0.70;;
23155;SDS011;11746;50.876;4.246;2022-12-29T04:04:07;3.58;;;0.50;;
23155;SDS011;11746;50.876;4.246;2022-12-29T04:06:33;4.28;;;0.80;;
23155;SDS011;11746;50.876;4.246;2022-12-29T04:08:59;6.53;;;0.95;;
23155;SDS011;11746;50.876;4.246;2022-12-29T04:11:28;3.97;;;0.90;;
23155;SDS011;11746;50.876;4.246;2022-12-29T04:13:53;4.50;;;0.60;;
23155;SDS011;11746;50.876;4.246;2022-12-29T04:16:19;4.82;;;0.75;;
23155;SDS011;11746;50.876;4.246;2022-12-29T04:18:47;3.95;;;0.50;;
23155;SDS011;11746;50.876;4.246;2022-12-29T04:21:15;5.55;;;1.00;;
23155;SDS011;11746;50.876;4.246;2022-12-29T04:23:43;4.75;;;0.70;;
23155;SDS011;11746;50.876;4.246;2022-12-29T04:26:09;5.63;;;0.60;;
23155;SDS011;11746;50.876;4.246;2022-12-29T04:28:35;5.13;;;0.63;;
23155;SDS011;11746;50.876;4.246;2022-12-29T04:31:02;3.30;;;0.60;;
23155;SDS011;11746;50.876;4.246;2022-12-29T04:33:28;6.95;;;0.80;;
23155;SDS011;11746;50.876;4.246;2022-12-29T04:35:56;4.63;;;0.70;;
23155;SDS011;11746;50.876;4.246;2022-12-29T04:38:23;4.10;;;0.85;;
23155;SDS011;11746;50.876;4.246;2022-12-29T04:40:49;1.17;;;0.32;;
23155;SDS011;11746;50.876;4.246;2022-12-29T04:43:16;3.40;;;0.57;;
23155;SDS011;11746;50.876;4.246;2022-12-29T04:45:47;4.93;;;0.60;;
23155;SDS011;11746;50.876;4.246;2022-12-29T04:48:15;2.88;;;0.63;;
23155;SDS011;11746;50.876;4.246;2022-12-29T04:50:41;3.72;;;0.70;;
23155;SDS011;11746;50.876;4.246;2022-12-29T04:53:09;3.67;;;0.88;;
23155;SDS011;11746;50.876;4.246;2022-12-29T04:55:36;5.57;;;0.63;;
23155;SDS011;11746;50.876;4.246;2022-12-29T04:58:01;2.45;;;0.77;;
23155;SDS011;11746;50.876;4.246;2022-12-29T05:00:29;3.85;;;0.85;;
23155;SDS011;11746;50.876;4.246;2022-12-29T05:02:55;5.43;;;0.80;;
23155;SDS011;11746;50.876;4.246;2022-12-29T05:05:20;3.15;;;0.60;;
23155;SDS011;11746;50.876;4.246;2022-12-29T05:07:46;3.03;;;0.55;;
23155;SDS011;11746;50.876;4.246;2022-12-29T05:10:15;5.43;;;0.88;;
23155;SDS011;11746;50.876;4.246;2022-12-29T05:12:46;4.00;;;0.52;;
23155;SDS011;11746;50.876;4.246;2022-12-29T05:15:14;6.80;;;0.90;;
23155;SDS011;11746;50.876;4.246;2022-12-29T05:17:40;3.72;;;0.55;;
23155;SDS011;11746;50.876;4.246;2022-12-29T05:20:07;8.13;;;1.13;;
23155;SDS011;11746;50.876;4.246;2022-12-29T05:22:33;6.03;;;0.98;;
23155;SDS011;11746;50.876;4.246;2022-12-29T05:24:59;6.85;;;0.85;;
23155;SDS011;11746;50.876;4.246;2022-12-29T05:27:24;4.85;;;0.75;;
23155;SDS011;11746;50.876;4.246;2022-12-29T05:29:53;3.65;;;0.60;;
23155;SDS011;11746;50.876;4.246;2022-12-29T05:32:18;4.63;;;0.80;;
23155;SDS011;11746;50.876;4.246;2022-12-29T05:34:44;5.97;;;0.88;;
23155;SDS011;11746;50.876;4.246;2022-12-29T05:37:13;5.90;;;1.30;;
23155;SDS011;11746;50.876;4.246;2022-12-29T05:39:41;4.22;;;0.80;;
23155;SDS011;11746;50.876;4.246;2022-12-29T05:42:09;7.05;;;1.00;;
23155;SDS011;11746;50.876;4.246;2022-12-29T05:44:35;5.30;;;1.00;;
23155;SDS011;11746;50.876;4.246;2022-12-29T05:47:03;5.03;;;1.13;;
23155;SDS011;11746;50.876;4.246;2022-12-29T05:49:31;7.50;;;1.00;;
23155;SDS011;11746;50.876;4.246;2022-12-29T05:51:57;4.88;;;1.45;;
23155;SDS011;11746;50.876;4.246;2022-12-29T05:54:23;3.63;;;0.82;;
23155;SDS011;11746;50.876;4.246;2022-12-29T05:56:50;4.60;;;0.98;;
23155;SDS011;11746;50.876;4.246;2022-12-29T05:59:16;7.75;;;1.20;;
23155;SDS011;11746;50.876;4.246;2022-12-29T06:01:42;6.03;;;1.05;;
23155;SDS011;11746;50.876;4.246;2022-12-29T06:04:07;8.30;;;1.15;;
23155;SDS011;11746;50.876;4.246;2022-12-29T06:06:33;7.53;;;1.42;;
23155;SDS011;11746;50.876;4.246;2022-12-29T06:08:59;5.80;;;1.10;;
23155;SDS011;11746;50.876;4.246;2022-12-29T06:11:25;9.27;;;1.08;;
23155;SDS011;11746;50.876;4.246;2022-12-29T06:13:50;7.43;;;1.48;;
23155;SDS011;11746;50.876;4.246;2022-12-29T06:16:16;8.85;;;1.10;;
23155;SDS011;11746;50.876;4.246;2022-12-29T06:18:44;8.02;;;1.15;;
23155;SDS011;11746;50.876;4.246;2022-12-29T06:21:12;7.30;;;1.52;;
23155;SDS011;11746;50.876;4.246;2022-12-29T06:23:39;6.90;;;0.93;;
23155;SDS011;11746;50.876;4.246;2022-12-29T06:26:05;6.68;;;1.30;;
23155;SDS011;11746;50.876;4.246;2022-12-29T06:28:31;7.60;;;1.25;;
23155;SDS011;11746;50.876;4.246;2022-12-29T06:30:59;9.15;;;1.35;;
23155;SDS011;11746;50.876;4.246;2022-12-29T06:33:27;10.27;;;1.23;;
23155;SDS011;11746;50.876;4.246;2022-12-29T06:35:56;10.85;;;2.13;;
23155;SDS011;11746;50.876;4.246;2022-12-29T06:38:24;8.38;;;1.50;;
23155;SDS011;11746;50.876;4.246;2022-12-29T06:40:50;9.38;;;1.45;;
23155;SDS011;11746;50.876;4.246;2022-12-29T06:43:15;4.70;;;1.55;;
23155;SDS011;11746;50.876;4.246;2022-12-29T06:45:43;7.88;;;1.40;;
23155;SDS011;11746;50.876;4.246;2022-12-29T06:48:11;8.68;;;1.50;;
23155;SDS011;11746;50.876;4.246;2022-12-29T06:50:37;8.10;;;1.70;;
23155;SDS011;11746;50.876;4.246;2022-12-29T06:53:03;6.65;;;1.10;;
23155;SDS011;11746;50.876;4.246;2022-12-29T06:55:29;6.68;;;1.10;;
23155;SDS011;11746;50.876;4.246;2022-12-29T06:57:58;9.18;;;1.30;;
23155;SDS011;11746;50.876;4.246;2022-12-29T07:00:24;8.85;;;1.30;;
23155;SDS011;11746;50.876;4.246;2022-12-29T07:02:52;8.73;;;1.95;;
23155;SDS011;11746;50.876;4.246;2022-12-29T07:05:20;9.05;;;1.40;;
23155;SDS011;11746;50.876;4.246;2022-12-29T07:07:46;7.78;;;1.38;;
23155;SDS011;11746;50.876;4.246;2022-12-29T07:10:11;9.25;;;1.35;;
23155;SDS011;11746;50.876;4.246;2022-12-29T07:12:37;9.80;;;1.50;;
23155;SDS011;11746;50.876;4.246;2022-12-29T07:15:02;7.75;;;1.42;;
23155;SDS011;11746;50.876;4.246;2022-12-29T07:17:28;8.20;;;1.58;;
23155;SDS011;11746;50.876;4.246;2022-12-29T07:19:56;6.28;;;1.08;;
23155;SDS011;11746;50.876;4.246;2022-12-29T07:22:21;10.27;;;1.13;;
23155;SDS011;11746;50.876;4.246;2022-12-29T07:24:47;7.93;;;1.33;;
23155;SDS011;11746;50.876;4.246;2022-12-29T07:27:13;6.78;;;1.50;;
23155;SDS011;11746;50.876;4.246;2022-12-29T07:29:41;5.28;;;1.00;;
23155;SDS011;11746;50.876;4.246;2022-12-29T07:32:06;9.48;;;1.73;;
23155;SDS011;11746;50.876;4.246;2022-12-29T07:34:32;11.60;;;1.95;;
23155;SDS011;11746;50.876;4.246;2022-12-29T07:36:58;6.85;;;1.30;;
23155;SDS011;11746;50.876;4.246;2022-12-29T07:39:23;7.85;;;1.52;;
23155;SDS011;11746;50.876;4.246;2022-12-29T07:41:49;7.80;;;1.15;;
23155;SDS011;11746;50.876;4.246;2022-12-29T07:44:14;12.43;;;1.73;;
23155;SDS011;11746;50.876;4.246;2022-12-29T07:46:40;6.93;;;1.50;;
23155;SDS011;11746;50.876;4.246;2022-12-29T07:49:06;11.90;;;1.67;;
23155;SDS011;11746;50.876;4.246;2022-12-29T07:51:34;7.53;;;1.50;;
23155;SDS011;11746;50.876;4.246;2022-12-29T07:53:59;6.38;;;1.40;;
23155;SDS011;11746;50.876;4.246;2022-12-29T07:56:26;7.97;;;1.25;;
23155;SDS011;11746;50.876;4.246;2022-12-29T07:58:52;5.65;;;1.40;;
23155;SDS011;11746;50.876;4.246;2022-12-29T08:01:17;9.85;;;1.38;;
23155;SDS011;11746;50.876;4.246;2022-12-29T08:03:43;11.13;;;1.85;;
23155;SDS011;11746;50.876;4.246;2022-12-29T08:06:09;9.25;;;1.17;;
23155;SDS011;11746;50.876;4.246;2022-12-29T08:08:35;8.43;;;1.70;;
23155;SDS011;11746;50.876;4.246;2022-12-29T08:11:03;6.78;;;1.02;;
23155;SDS011;11746;50.876;4.246;2022-12-29T08:13:29;8.88;;;1.33;;
23155;SDS011;11746;50.876;4.246;2022-12-29T08:15:57;5.03;;;1.23;;
23155;SDS011;11746;50.876;4.246;2022-12-29T08:18:23;8.00;;;1.30;;
23155;SDS011;11746;50.876;4.246;2022-12-29T08:20:49;6.00;;;1.40;;
23155;SDS011;11746;50.876;4.246;2022-12-29T08:23:17;6.45;;;1.35;;
23155;SDS011;11746;50.876;4.246;2022-12-29T08:25:56;13.38;;;1.92;;
23155;SDS011;11746;50.876;4.246;2022-12-29T08:28:31;9.13;;;1.75;;
23155;SDS011;11746;50.876;4.246;2022-12-29T08:30:58;6.65;;;1.48;;
23155;SDS011;11746;50.876;4.246;2022-12-29T08:33:25;9.90;;;1.77;;
23155;SDS011;11746;50.876;4.246;2022-12-29T08:35:51;8.20;;;1.40;;
23155;SDS011;11746;50.876;4.246;2022-12-29T08:38:19;10.77;;;2.40;;
23155;SDS011;11746;50.876;4.246;2022-12-29T08:40:45;8.60;;;1.58;;
23155;SDS011;11746;50.876;4.246;2022-12-29T08:43:10;13.50;;;5.88;;
23155;SDS011;11746;50.876;4.246;2022-12-29T08:45:38;14.32;;;3.03;;
23155;SDS011;11746;50.876;4.246;2022-12-29T08:48:04;8.82;;;1.60;;
23155;SDS011;11746;50.876;4.246;2022-12-29T08:50:29;8.30;;;1.83;;
23155;SDS011;11746;50.876;4.246;2022-12-29T08:52:57;15.52;;;5.75;;
23155;SDS011;11746;50.876;4.246;2022-12-29T08:55:26;9.07;;;1.40;;
23155;SDS011;11746;50.876;4.246;2022-12-29T08:57:51;9.00;;;1.50;;
23155;SDS011;11746;50.876;4.246;2022-12-29T09:00:20;10.98;;;1.52;;
23155;SDS011;11746;50.876;4.246;2022-12-29T09:02:46;9.45;;;1.48;;
23155;SDS011;11746;50.876;4.246;2022-12-29T09:05:12;5.72;;;1.25;;
23155;SDS011;11746;50.876;4.246;2022-12-29T09:07:37;9.43;;;1.52;;
23155;SDS011;11746;50.876;4.246;2022-12-29T09:10:03;8.98;;;1.45;;
23155;SDS011;11746;50.876;4.246;2022-12-29T09:12:32;6.10;;;1.60;;
23155;SDS011;11746;50.876;4.246;2022-12-29T09:14:58;9.25;;;1.45;;
23155;SDS011;11746;50.876;4.246;2022-12-29T09:17:23;8.73;;;1.70;;
23155;SDS011;11746;50.876;4.246;2022-12-29T09:20:07;13.25;;;2.08;;
23155;SDS011;11746;50.876;4.246;2022-12-29T09:22:34;9.32;;;1.35;;
23155;SDS011;11746;50.876;4.246;2022-12-29T09:25:00;11.45;;;1.50;;
23155;SDS011;11746;50.876;4.246;2022-12-29T09:27:29;8.27;;;1.70;;
23155;SDS011;11746;50.876;4.246;2022-12-29T09:29:59;11.90;;;1.77;;
23155;SDS011;11746;50.876;4.246;2022-12-29T09:32:25;12.02;;;1.98;;
23155;SDS011;11746;50.876;4.246;2022-12-29T09:34:53;10.32;;;1.70;;
23155;SDS011;11746;50.876;4.246;2022-12-29T09:37:18;8.00;;;1.50;;
23155;SDS011;11746;50.876;4.246;2022-12-29T09:39:46;11.23;;;1.98;;
23155;SDS011;11746;50.876;4.246;2022-12-29T09:42:16;13.20;;;2.10;;
23155;SDS011;11746;50.876;4.246;2022-12-29T09:45:32;11.05;;;2.00;;
23155;SDS011;11746;50.876;4.246;2022-12-29T09:47:50;11.73;;;1.80;;
23155;SDS011;11746;50.876;4.246;2022-12-29T09:55:21;11.63;;;2.03;;
23155;SDS011;11746;50.876;4.246;2022-12-29T10:00:35;9.20;;;1.60;;
23155;SDS011;11746;50.876;4.246;2022-12-29T10:03:06;13.07;;;2.00;;
23155;SDS011;11746;50.876;4.246;2022-12-29T10:08:39;13.13;;;1.80;;
23155;SDS011;11746;50.876;4.246;2022-12-29T10:25:20;8.70;;;1.70;;
23155;SDS011;11746;50.876;4.246;2022-12-29T10:27:51;8.30;;;1.70;;
23155;SDS011;11746;50.876;4.246;2022-12-29T10:30:21;11.25;;;1.55;;
23155;SDS011;11746;50.876;4.246;2022-12-29T10:32:56;13.88;;;2.33;;
23155;SDS011;11746;50.876;4.246;2022-12-29T10:35:31;10.23;;;1.63;;
23155;SDS011;11746;50.876;4.246;2022-12-29T10:43:47;10.43;;;1.73;;
23155;SDS011;11746;50.876;4.246;2022-12-29T10:46:17;12.02;;;1.88;;
23155;SDS011;11746;50.876;4.246;2022-12-29T10:48:46;12.52;;;2.17;;
23155;SDS011;11746;50.876;4.246;2022-12-29T10:51:19;10.85;;;1.58;;
23155;SDS011;11746;50.876;4.246;2022-12-29T10:54:10;10.95;;;1.92;;
23155;SDS011;11746;50.876;4.246;2022-12-29T10:56:52;11.05;;;1.90;;
23155;SDS011;11746;50.876;4.246;2022-12-29T10:59:30;13.05;;;2.25;;
23155;SDS011;11746;50.876;4.246;2022-12-29T11:07:14;9.38;;;1.52;;
23155;SDS011;11746;50.876;4.246;2022-12-29T11:09:46;10.05;;;2.00;;
23155;SDS011;11746;50.876;4.246;2022-12-29T11:14:46;10.82;;;1.88;;
23155;SDS011;11746;50.876;4.246;2022-12-29T11:17:16;7.75;;;1.65;;
23155;SDS011;11746;50.876;4.246;2022-12-29T11:19:45;8.50;;;1.75;;
23155;SDS011;11746;50.876;4.246;2022-12-29T11:22:17;9.27;;;1.58;;
23155;SDS011;11746;50.876;4.246;2022-12-29T11:24:47;10.27;;;2.03;;
23155;SDS011;11746;50.876;4.246;2022-12-29T11:27:16;12.95;;;1.83;;
23155;SDS011;11746;50.876;4.246;2022-12-29T11:29:52;10.98;;;1.92;;
23155;SDS011;11746;50.876;4.246;2022-12-29T11:32:24;9.65;;;2.13;;
23155;SDS011;11746;50.876;4.246;2022-12-29T11:34:55;8.75;;;1.63;;
23155;SDS011;11746;50.876;4.246;2022-12-29T11:42:52;9.55;;;1.80;;
23155;SDS011;11746;50.876;4.246;2022-12-29T11:45:21;9.45;;;2.00;;
23155;SDS011;11746;50.876;4.246;2022-12-29T11:47:55;10.13;;;1.67;;
23155;SDS011;11746;50.876;4.246;2022-12-29T11:53:47;13.10;;;1.95;;
23155;SDS011;11746;50.876;4.246;2022-12-29T11:56:15;14.15;;;2.20;;
23155;SDS011;11746;50.876;4.246;2022-12-29T11:58:43;10.55;;;1.65;;
23155;SDS011;11746;50.876;4.246;2022-12-29T12:06:36;6.70;;;1.63;;
23155;SDS011;11746;50.876;4.246;2022-12-29T12:09:14;6.13;;;1.30;;
23155;SDS011;11746;50.876;4.246;2022-12-29T12:11:47;13.82;;;1.77;;
23155;SDS011;11746;50.876;4.246;2022-12-29T12:14:23;8.05;;;1.80;;
23155;SDS011;11746;50.876;4.246;2022-12-29T12:17:06;10.85;;;1.75;;
23155;SDS011;11746;50.876;4.246;2022-12-29T12:19:43;10.77;;;1.38;;
23155;SDS011;11746;50.876;4.246;2022-12-29T12:25:34;11.85;;;2.22;;
23155;SDS011;11746;50.876;4.246;2022-12-29T12:28:09;12.30;;;1.88;;
23155;SDS011;11746;50.876;4.246;2022-12-29T12:30:49;7.00;;;1.98;;
23155;SDS011;11746;50.876;4.246;2022-12-29T12:33:35;6.53;;;1.25;;
23155;SDS011;11746;50.876;4.246;2022-12-29T12:39:05;9.57;;;1.70;;
23155;SDS011;11746;50.876;4.246;2022-12-29T12:47:26;10.85;;;1.83;;
23155;SDS011;11746;50.876;4.246;2022-12-29T12:50:04;10.50;;;1.63;;
23155;SDS011;11746;50.876;4.246;2022-12-29T13:00:44;14.32;;;2.50;;
23155;SDS011;11746;50.876;4.246;2022-12-29T13:03:27;8.18;;;1.40;;
23155;SDS011;11746;50.876;4.246;2022-12-29T13:11:52;10.40;;;1.60;;
23155;SDS011;11746;50.876;4.246;2022-12-29T13:17:23;8.75;;;1.85;;
23155;SDS011;11746;50.876;4.246;2022-12-29T13:20:12;7.60;;;1.58;;
23155;SDS011;11746;50.876;4.246;2022-12-29T13:22:53;5.72;;;1.10;;
23155;SDS011;11746;50.876;4.246;2022-12-29T13:25:33;6.43;;;1.25;;
23155;SDS011;11746;50.876;4.246;2022-12-29T13:30:53;5.93;;;1.17;;
23155;SDS011;11746;50.876;4.246;2022-12-29T13:36:29;5.10;;;1.15;;
23155;SDS011;11746;50.876;4.246;2022-12-29T13:39:12;5.45;;;1.40;;
23155;SDS011;11746;50.876;4.246;2022-12-29T13:41:52;8.82;;;1.20;;
23155;SDS011;11746;50.876;4.246;2022-12-29T13:45:06;9.43;;;1.70;;
23155;SDS011;11746;50.876;4.246;2022-12-29T13:49:51;9.07;;;2.42;;
23155;SDS011;11746;50.876;4.246;2022-12-29T13:52:38;8.85;;;1.67;;
23155;SDS011;11746;50.876;4.246;2022-12-29T13:55:18;13.00;;;2.30;;
23155;SDS011;11746;50.876;4.246;2022-12-29T13:58:03;6.78;;;1.50;;
23155;SDS011;11746;50.876;4.246;2022-12-29T14:00:39;11.23;;;2.28;;
23155;SDS011;11746;50.876;4.246;2022-12-29T14:06:22;10.07;;;1.88;;
23155;SDS011;11746;50.876;4.246;2022-12-29T14:08:49;9.88;;;1.80;;
23155;SDS011;11746;50.876;4.246;2022-12-29T14:11:33;12.50;;;2.17;;
23155;SDS011;11746;50.876;4.246;2022-12-29T14:17:09;10.45;;;1.90;;
23155;SDS011;11746;50.876;4.246;2022-12-29T14:19:38;10.88;;;1.58;;
23155;SDS011;11746;50.876;4.246;2022-12-29T14:22:06;7.25;;;1.08;;
23155;SDS011;11746;50.876;4.246;2022-12-29T14:24:42;5.43;;;1.08;;
23155;SDS011;11746;50.876;4.246;2022-12-29T14:34:51;3.38;;;0.68;;
23155;SDS011;11746;50.876;4.246;2022-12-29T14:37:28;4.22;;;0.90;;
23155;SDS011;11746;50.876;4.246;2022-12-29T14:40:04;6.05;;;0.77;;
23155;SDS011;11746;50.876;4.246;2022-12-29T14:42:50;7.80;;;1.15;;
23155;SDS011;11746;50.876;4.246;2022-12-29T14:45:29;7.18;;;0.88;;
23155;SDS011;11746;50.876;4.246;2022-12-29T14:50:25;6.80;;;1.00;;
23155;SDS011;11746;50.876;4.246;2022-12-29T14:53:01;6.55;;;1.10;;
23155;SDS011;11746;50.876;4.246;2022-12-29T14:55:37;4.43;;;1.20;;
23155;SDS011;11746;50.876;4.246;2022-12-29T14:58:28;6.63;;;1.40;;
23155;SDS011;11746;50.876;4.246;2022-12-29T15:00:53;5.85;;;1.33;;
23155;SDS011;11746;50.876;4.246;2022-12-29T15:03:24;6.80;;;1.15;;
23155;SDS011;11746;50.876;4.246;2022-12-29T15:06:09;4.15;;;1.00;;
23155;SDS011;11746;50.876;4.246;2022-12-29T15:08:39;8.20;;;1.80;;
23155;SDS011;11746;50.876;4.246;2022-12-29T15:14:00;5.97;;;1.05;;
23155;SDS011;11746;50.876;4.246;2022-12-29T15:18:52;8.30;;;1.50;;
23155;SDS011;11746;50.876;4.246;2022-12-29T15:21:20;5.97;;;0.88;;
23155;SDS011;11746;50.876;4.246;2022-12-29T15:23:52;3.25;;;1.00;;
23155;SDS011;11746;50.876;4.246;2022-12-29T15:26:18;5.88;;;1.42;;
23155;SDS011;11746;50.876;4.246;2022-12-29T15:28:49;7.78;;;1.15;;
23155;SDS011;11746;50.876;4.246;2022-12-29T15:33:44;11.60;;;1.67;;
23155;SDS011;11746;50.876;4.246;2022-12-29T15:36:36;8.27;;;1.50;;
23155;SDS011;11746;50.876;4.246;2022-12-29T15:39:17;11.38;;;1.60;;
23155;SDS011;11746;50.876;4.246;2022-12-29T15:41:53;5.70;;;1.50;;
23155;SDS011;11746;50.876;4.246;2022-12-29T15:44:40;10.10;;;1.48;;
23155;SDS011;11746;50.876;4.246;2022-12-29T15:47:23;9.85;;;1.67;;
23155;SDS011;11746;50.876;4.246;2022-12-29T15:49:52;9.50;;;1.23;;
23155;SDS011;11746;50.876;4.246;2022-12-29T15:52:22;10.27;;;1.98;;
23155;SDS011;11746;50.876;4.246;2022-12-29T15:54:51;9.20;;;1.58;;
23155;SDS011;11746;50.876;4.246;2022-12-29T15:57:22;11.55;;;1.60;;
23155;SDS011;11746;50.876;4.246;2022-12-29T15:59:53;13.93;;;1.60;;
23155;SDS011;11746;50.876;4.246;2022-12-29T16:02:23;9.00;;;1.70;;
23155;SDS011;11746;50.876;4.246;2022-12-29T16:04:49;8.93;;;1.67;;
23155;SDS011;11746;50.876;4.246;2022-12-29T16:09:47;10.82;;;2.08;;
23155;SDS011;11746;50.876;4.246;2022-12-29T16:12:20;9.75;;;1.80;;
23155;SDS011;11746;50.876;4.246;2022-12-29T16:14:51;6.32;;;1.55;;
23155;SDS011;11746;50.876;4.246;2022-12-29T16:17:29;10.38;;;1.90;;
23155;SDS011;11746;50.876;4.246;2022-12-29T16:19:58;8.55;;;1.70;;
23155;SDS011;11746;50.876;4.246;2022-12-29T16:22:28;9.05;;;1.90;;
23155;SDS011;11746;50.876;4.246;2022-12-29T16:25:19;9.32;;;1.70;;
23155;SDS011;11746;50.876;4.246;2022-12-29T16:27:50;9.20;;;1.90;;
23155;SDS011;11746;50.876;4.246;2022-12-29T16:32:54;15.32;;;2.10;;
23155;SDS011;11746;50.876;4.246;2022-12-29T16:35:28;14.05;;;2.35;;
23155;SDS011;11746;50.876;4.246;2022-12-29T16:40:50;14.38;;;2.50;;
23155;SDS011;11746;50.876;4.246;2022-12-29T16:43:21;12.88;;;2.60;;
23155;SDS011;11746;50.876;4.246;2022-12-29T16:46:27;8.00;;;2.20;;
23155;SDS011;11746;50.876;4.246;2022-12-29T16:48:54;11.73;;;2.38;;
23155;SDS011;11746;50.876;4.246;2022-12-29T16:51:28;12.80;;;2.38;;
23155;SDS011;11746;50.876;4.246;2022-12-29T16:54:00;14.73;;;2.97;;
23155;SDS011;11746;50.876;4.246;2022-12-29T16:56:27;13.45;;;3.05;;
23155;SDS011;11746;50.876;4.246;2022-12-29T17:01:54;12.57;;;3.03;;
23155;SDS011;11746;50.876;4.246;2022-12-29T17:04:21;16.50;;;3.45;;
23155;SDS011;11746;50.876;4.246;2022-12-29T17:06:49;13.55;;;2.55;;
23155;SDS011;11746;50.876;4.246;2022-12-29T17:09:19;15.98;;;2.95;;
23155;SDS011;11746;50.876;4.246;2022-12-29T17:11:47;14.70;;;2.90;;
23155;SDS011;11746;50.876;4.246;2022-12-29T17:17:14;8.80;;;1.98;;
23155;SDS011;11746;50.876;4.246;2022-12-29T17:19:45;14.20;;;2.63;;
23155;SDS011;11746;50.876;4.246;2022-12-29T17:22:23;15.73;;;2.90;;
23155;SDS011;11746;50.876;4.246;2022-12-29T17:24:50;11.27;;;2.25;;
23155;SDS011;11746;50.876;4.246;2022-12-29T17:32:40;10.20;;;2.00;;
23155;SDS011;11746;50.876;4.246;2022-12-29T17:35:16;15.10;;;2.85;;
23155;SDS011;11746;50.876;4.246;2022-12-29T17:37:46;12.73;;;2.72;;
23155;SDS011;11746;50.876;4.246;2022-12-29T17:40:16;8.02;;;2.10;;
23155;SDS011;11746;50.876;4.246;2022-12-29T17:42:54;9.88;;;1.95;;
23155;SDS011;11746;50.876;4.246;2022-12-29T17:45:27;13.65;;;2.35;;
23155;SDS011;11746;50.876;4.246;2022-12-29T17:47:54;13.48;;;2.55;;
23155;SDS011;11746;50.876;4.246;2022-12-29T17:50:22;14.07;;;2.47;;
23155;SDS011;11746;50.876;4.246;2022-12-29T17:52:53;14.60;;;2.58;;
23155;SDS011;11746;50.876;4.246;2022-12-29T17:55:23;13.77;;;2.42;;
23155;SDS011;11746;50.876;4.246;2022-12-29T17:57:49;9.93;;;2.78;;
23155;SDS011;11746;50.876;4.246;2022-12-29T18:00:20;11.55;;;2.58;;